»·PEaware :: N335AK KSNA-KSDL

N335AK :: KSNA-KSDL

FLIGHT INFORMATION

Flight Status: Arrived
Operator: Privately registered:
United States
More flights under this callsign
Pilot: Gabor H. (24209)
Aircraft: Unknown
(EPIC)
More flights by this aircraft type
Origin: KSNA John Wayne-Orange Co
United States
Destination: KSDL Scottsdale
United States
More flights between these airports :: More routes between these airports
Route: +PIGGN2 CNERY BLH BLH5
File this flight plan on PilotEdge
Remarks:
Altitude:
(Current/Filed)
25,000ft
Speed:
(Current/Filed)
325kts
Departed: 29-Jul-20 07:31 AM
Arrived: 29-Jul-20 08:38 AM
Distance/Time
Traveled:
298nm/1:07
Distance/Time
To Go:
Arrived

Flight Plot

Page will automatically refresh every two minutes.

Flight plan parsing failed; only flown route is shown


Map Options




Map Legend


Flown Route
Filed Route
Departure Airport
Arrival Airport
Navaid (VOR, NDB)
Fix

Horizontal Profiles

Position Reports

Time Latitude Longitude Heading Altitude Ground
Speed
29-Jul-20 07:08 33.672653 -117.866150 244 59ft 0kts
29-Jul-20 07:09 33.672653 -117.866150 244 59ft 0kts
29-Jul-20 07:10 33.672653 -117.866150 244 59ft 0kts
29-Jul-20 07:11 33.672653 -117.866150 244 59ft 0kts
29-Jul-20 07:12 33.672653 -117.866150 244 59ft 0kts
29-Jul-20 07:13 33.672653 -117.866150 244 59ft 0kts
29-Jul-20 07:14 33.672653 -117.866150 244 59ft 0kts
29-Jul-20 07:15 33.672653 -117.866150 244 59ft 0kts
29-Jul-20 07:16 33.672653 -117.866150 244 59ft 0kts
29-Jul-20 07:17 33.672653 -117.866150 244 59ft 0kts
29-Jul-20 07:18 33.672653 -117.866150 244 59ft 0kts
29-Jul-20 07:19 33.672653 -117.866150 244 59ft 0kts
29-Jul-20 07:20 33.672653 -117.866150 244 59ft 0kts
29-Jul-20 07:21 33.672653 -117.866150 244 59ft 0kts
29-Jul-20 07:22 33.672653 -117.866150 244 59ft 0kts
29-Jul-20 07:23 33.672653 -117.866150 244 59ft 0kts
29-Jul-20 07:24 33.672653 -117.866150 244 59ft 0kts
29-Jul-20 07:25 33.672653 -117.866150 245 59ft 0kts
29-Jul-20 07:26 33.673158 -117.867095 26 59ft 13kts
29-Jul-20 07:27 33.676118 -117.865792 28 59ft 9kts
29-Jul-20 07:28 33.679073 -117.863931 26 59ft 17kts
29-Jul-20 07:29 33.680436 -117.864684 297 59ft 0kts
29-Jul-20 07:30 33.675640 -117.868899 207 127ft 121kts
29-Jul-20 07:31 33.629500 -117.888562 189 2982ft 195kts
29-Jul-20 07:32 33.570673 -117.896402 164 4993ft 251kts
29-Jul-20 07:33 33.512566 -117.861458 140 8602ft 227kts
29-Jul-20 07:34 33.482441 -117.794158 116 11843ft 235kts
29-Jul-20 07:35 33.479762 -117.714697 87 14712ft 253kts
29-Jul-20 07:36 33.510735 -117.636088 62 17338ft 272kts
29-Jul-20 07:37 33.548845 -117.555994 61 19204ft 283kts
29-Jul-20 07:38 33.578055 -117.469832 103 20628ft 279kts
29-Jul-20 07:39 33.552106 -117.383577 114 22158ft 274kts
29-Jul-20 07:40 33.525435 -117.298663 115 23649ft 271kts
29-Jul-20 07:41 33.504882 -117.212347 96 24985ft 279kts
29-Jul-20 07:42 33.502483 -117.112567 94 25008ft 315kts
29-Jul-20 07:43 33.500273 -117.004726 94 25015ft 331kts
29-Jul-20 07:44 33.497999 -116.892666 93 25026ft 342kts
29-Jul-20 07:45 33.496721 -116.777870 92 24973ft 347kts
29-Jul-20 07:46 33.495338 -116.661730 92 24898ft 350kts
29-Jul-20 07:47 33.493841 -116.545162 92 24852ft 350kts
29-Jul-20 07:48 33.492231 -116.428211 92 24822ft 350kts
29-Jul-20 07:49 33.490540 -116.311822 93 24806ft 349kts
29-Jul-20 07:50 33.488739 -116.195349 93 24806ft 348kts
29-Jul-20 07:51 33.486839 -116.079473 93 24807ft 348kts
29-Jul-20 07:52 33.505979 -115.966428 71 24808ft 352kts
29-Jul-20 07:53 33.538360 -115.855591 71 24808ft 352kts
29-Jul-20 07:54 33.570630 -115.744834 71 24809ft 352kts
29-Jul-20 07:55 33.602813 -115.633954 71 24809ft 352kts
29-Jul-20 07:56 33.619706 -115.520248 93 24811ft 349kts
29-Jul-20 07:57 33.616492 -115.404006 94 24815ft 349kts
29-Jul-20 07:58 33.664624 -115.310667 39 24835ft 351kts
29-Jul-20 07:59 33.721956 -115.218633 70 24855ft 351kts
29-Jul-20 08:00 33.710423 -115.111017 115 24866ft 339kts
29-Jul-20 08:01 33.675694 -115.005414 113 24862ft 340kts
29-Jul-20 08:02 33.641167 -114.899286 113 24877ft 340kts
29-Jul-20 08:03 33.606747 -114.793858 113 24881ft 339kts
29-Jul-20 08:04 33.589172 -114.682765 97 24882ft 342kts
29-Jul-20 08:05 33.579009 -114.568930 97 24882ft 342kts
29-Jul-20 08:06 33.568797 -114.455494 97 24883ft 342kts
29-Jul-20 08:07 33.558687 -114.344329 97 24882ft 342kts
29-Jul-20 08:09 33.548257 -114.230800 97 24880ft 342kts
29-Jul-20 08:10 33.537741 -114.117501 97 24721ft 347kts
29-Jul-20 08:11 33.526458 -113.997204 98 23160ft 375kts
29-Jul-20 08:12 33.510375 -113.877629 118 22896ft 351kts
29-Jul-20 08:13 33.492708 -113.762452 100 21295ft 361kts
29-Jul-20 08:14 33.477895 -113.643541 100 18798ft 359kts
29-Jul-20 08:15 33.463797 -113.526726 100 16310ft 348kts
29-Jul-20 08:16 33.450696 -113.414640 100 13805ft 333kts
29-Jul-20 08:17 33.438407 -113.307545 100 13018ft 324kts
29-Jul-20 08:18 33.426083 -113.200194 100 13017ft 327kts
29-Jul-20 08:19 33.413694 -113.092031 100 13017ft 327kts
29-Jul-20 08:20 33.401237 -112.984172 100 13017ft 328kts
29-Jul-20 08:21 33.387435 -112.875420 100 12922ft 333kts
29-Jul-20 08:22 33.371818 -112.763957 100 12052ft 346kts
29-Jul-20 08:23 33.356736 -112.657854 100 10987ft 315kts
29-Jul-20 08:24 33.359683 -112.557713 80 10541ft 298kts
29-Jul-20 08:25 33.372948 -112.469812 79 9305ft 251kts
29-Jul-20 08:26 33.385555 -112.387228 79 8115ft 254kts
29-Jul-20 08:27 33.397679 -112.308814 80 7951ft 228kts
29-Jul-20 08:28 33.409463 -112.231910 80 6905ft 233kts
29-Jul-20 08:28 33.418953 -112.168558 79 5898ft 228kts
29-Jul-20 08:30 33.451218 -112.096039 60 5439ft 188kts
29-Jul-20 08:30 33.474839 -112.045941 60 4759ft 248kts
29-Jul-20 08:31 33.513839 -111.979232 44 3555ft 219kts
29-Jul-20 08:33 33.551488 -111.938130 43 3494ft 125kts
29-Jul-20 08:33 33.572663 -111.914895 43 3342ft 122kts
29-Jul-20 08:34 33.601874 -111.880107 45 2838ft 148kts
29-Jul-20 08:35 33.634089 -111.864250 323 2913ft 118kts
29-Jul-20 08:36 33.638957 -111.892302 225 1932ft 122kts
29-Jul-20 08:37 33.624100 -111.908840 159 1477ft 18kts
29-Jul-20 08:38 33.624826 -111.907155 43 1482ft 12kts
29-Jul-20 08:39 33.626781 -111.904503 126 1488ft 8kts
29-Jul-20 08:40 33.626486 -111.904511 136 1487ft 0kts

Navigation Log

Ident Type
Flight plan parsing failed, navigation log unavailable